sensor_id;sensor_type;location;lat;lon;timestamp;P1;durP1;ratioP1;P2;durP2;ratioP2
32535;SDS011;18974;50.838;4.636;2024-01-30T00:01:15;11.20;;;7.10;;
32535;SDS011;18974;50.838;4.636;2024-01-30T00:03:41;11.27;;;6.55;;
32535;SDS011;18974;50.838;4.636;2024-01-30T00:06:07;10.35;;;6.60;;
32535;SDS011;18974;50.838;4.636;2024-01-30T00:08:33;11.18;;;6.78;;
32535;SDS011;18974;50.838;4.636;2024-01-30T00:10:59;13.10;;;6.97;;
32535;SDS011;18974;50.838;4.636;2024-01-30T00:13:25;13.32;;;7.03;;
32535;SDS011;18974;50.838;4.636;2024-01-30T00:15:52;12.00;;;6.40;;
32535;SDS011;18974;50.838;4.636;2024-01-30T00:18:17;11.18;;;7.03;;
32535;SDS011;18974;50.838;4.636;2024-01-30T00:20:43;15.77;;;7.22;;
32535;SDS011;18974;50.838;4.636;2024-01-30T00:23:09;10.07;;;6.18;;
32535;SDS011;18974;50.838;4.636;2024-01-30T00:25:35;14.38;;;7.32;;
32535;SDS011;18974;50.838;4.636;2024-01-30T00:28:01;10.38;;;6.55;;
32535;SDS011;18974;50.838;4.636;2024-01-30T00:30:27;9.90;;;5.97;;
32535;SDS011;18974;50.838;4.636;2024-01-30T00:32:53;10.40;;;6.63;;
32535;SDS011;18974;50.838;4.636;2024-01-30T00:35:19;13.48;;;6.57;;
32535;SDS011;18974;50.838;4.636;2024-01-30T00:37:47;14.48;;;6.80;;
32535;SDS011;18974;50.838;4.636;2024-01-30T00:40:13;13.93;;;6.78;;
32535;SDS011;18974;50.838;4.636;2024-01-30T00:42:43;11.88;;;6.63;;
32535;SDS011;18974;50.838;4.636;2024-01-30T00:45:15;11.82;;;6.35;;
32535;SDS011;18974;50.838;4.636;2024-01-30T00:47:42;10.13;;;6.10;;
32535;SDS011;18974;50.838;4.636;2024-01-30T00:50:08;9.43;;;5.40;;
32535;SDS011;18974;50.838;4.636;2024-01-30T00:52:34;10.70;;;6.22;;
32535;SDS011;18974;50.838;4.636;2024-01-30T00:55:00;13.25;;;5.50;;
32535;SDS011;18974;50.838;4.636;2024-01-30T00:57:26;11.13;;;5.53;;
32535;SDS011;18974;50.838;4.636;2024-01-30T00:59:52;10.68;;;5.93;;
32535;SDS011;18974;50.838;4.636;2024-01-30T01:02:18;10.45;;;5.97;;
32535;SDS011;18974;50.838;4.636;2024-01-30T01:04:44;14.57;;;5.88;;
32535;SDS011;18974;50.838;4.636;2024-01-30T01:07:10;9.30;;;5.18;;
32535;SDS011;18974;50.838;4.636;2024-01-30T01:09:36;8.15;;;5.15;;
32535;SDS011;18974;50.838;4.636;2024-01-30T01:12:02;13.13;;;5.75;;
32535;SDS011;18974;50.838;4.636;2024-01-30T01:14:29;13.00;;;6.35;;
32535;SDS011;18974;50.838;4.636;2024-01-30T01:16:55;11.40;;;5.95;;
32535;SDS011;18974;50.838;4.636;2024-01-30T01:19:21;10.95;;;5.68;;
32535;SDS011;18974;50.838;4.636;2024-01-30T01:21:46;10.98;;;5.63;;
32535;SDS011;18974;50.838;4.636;2024-01-30T01:24:12;11.50;;;5.40;;
32535;SDS011;18974;50.838;4.636;2024-01-30T01:26:38;9.15;;;5.20;;
32535;SDS011;18974;50.838;4.636;2024-01-30T01:29:04;9.73;;;5.40;;
32535;SDS011;18974;50.838;4.636;2024-01-30T01:31:37;10.35;;;6.00;;
32535;SDS011;18974;50.838;4.636;2024-01-30T01:34:09;14.95;;;6.07;;
32535;SDS011;18974;50.838;4.636;2024-01-30T01:36:35;8.55;;;4.95;;
32535;SDS011;18974;50.838;4.636;2024-01-30T01:39:01;9.32;;;5.07;;
32535;SDS011;18974;50.838;4.636;2024-01-30T01:41:31;13.93;;;6.43;;
32535;SDS011;18974;50.838;4.636;2024-01-30T01:43:57;9.77;;;4.88;;
32535;SDS011;18974;50.838;4.636;2024-01-30T01:46:23;10.05;;;4.60;;
32535;SDS011;18974;50.838;4.636;2024-01-30T01:48:51;9.13;;;5.32;;
32535;SDS011;18974;50.838;4.636;2024-01-30T01:51:17;10.88;;;5.65;;
32535;SDS011;18974;50.838;4.636;2024-01-30T01:53:43;10.52;;;4.72;;
32535;SDS011;18974;50.838;4.636;2024-01-30T01:56:09;9.50;;;5.30;;
32535;SDS011;18974;50.838;4.636;2024-01-30T01:58:36;12.80;;;5.60;;
32535;SDS011;18974;50.838;4.636;2024-01-30T02:01:02;8.68;;;4.47;;
32535;SDS011;18974;50.838;4.636;2024-01-30T02:03:30;6.38;;;4.72;;
32535;SDS011;18974;50.838;4.636;2024-01-30T02:05:56;11.57;;;5.07;;
32535;SDS011;18974;50.838;4.636;2024-01-30T02:08:22;8.48;;;4.97;;
32535;SDS011;18974;50.838;4.636;2024-01-30T02:10:49;8.77;;;4.93;;
32535;SDS011;18974;50.838;4.636;2024-01-30T02:13:14;9.80;;;5.55;;
32535;SDS011;18974;50.838;4.636;2024-01-30T02:15:40;10.02;;;4.70;;
32535;SDS011;18974;50.838;4.636;2024-01-30T02:18:06;7.10;;;5.13;;
32535;SDS011;18974;50.838;4.636;2024-01-30T02:20:31;9.48;;;4.82;;
32535;SDS011;18974;50.838;4.636;2024-01-30T02:23:00;9.50;;;4.97;;
32535;SDS011;18974;50.838;4.636;2024-01-30T02:25:33;8.80;;;5.05;;
32535;SDS011;18974;50.838;4.636;2024-01-30T02:30:28;10.35;;;5.50;;
32535;SDS011;18974;50.838;4.636;2024-01-30T02:32:54;7.55;;;5.30;;
32535;SDS011;18974;50.838;4.636;2024-01-30T02:35:19;11.02;;;5.00;;
32535;SDS011;18974;50.838;4.636;2024-01-30T02:37:45;7.50;;;5.13;;
32535;SDS011;18974;50.838;4.636;2024-01-30T02:40:11;8.57;;;5.22;;
32535;SDS011;18974;50.838;4.636;2024-01-30T02:42:36;13.65;;;4.82;;
32535;SDS011;18974;50.838;4.636;2024-01-30T02:45:02;7.60;;;5.05;;
32535;SDS011;18974;50.838;4.636;2024-01-30T02:47:28;8.10;;;5.38;;
32535;SDS011;18974;50.838;4.636;2024-01-30T02:49:53;9.43;;;5.57;;
32535;SDS011;18974;50.838;4.636;2024-01-30T02:52:19;8.80;;;5.32;;
32535;SDS011;18974;50.838;4.636;2024-01-30T02:54:45;11.05;;;5.45;;
32535;SDS011;18974;50.838;4.636;2024-01-30T02:57:10;15.35;;;5.20;;
32535;SDS011;18974;50.838;4.636;2024-01-30T02:59:36;12.50;;;4.88;;
32535;SDS011;18974;50.838;4.636;2024-01-30T03:02:02;9.20;;;4.93;;
32535;SDS011;18974;50.838;4.636;2024-01-30T03:04:27;8.20;;;4.97;;
32535;SDS011;18974;50.838;4.636;2024-01-30T03:06:55;9.13;;;4.95;;
32535;SDS011;18974;50.838;4.636;2024-01-30T03:09:20;12.57;;;5.07;;
32535;SDS011;18974;50.838;4.636;2024-01-30T03:11:46;9.38;;;5.35;;
32535;SDS011;18974;50.838;4.636;2024-01-30T03:14:12;11.60;;;5.95;;
32535;SDS011;18974;50.838;4.636;2024-01-30T03:16:37;13.10;;;6.38;;
32535;SDS011;18974;50.838;4.636;2024-01-30T03:19:04;11.55;;;6.18;;
32535;SDS011;18974;50.838;4.636;2024-01-30T03:21:32;12.88;;;6.60;;
32535;SDS011;18974;50.838;4.636;2024-01-30T03:23:58;17.00;;;7.25;;
32535;SDS011;18974;50.838;4.636;2024-01-30T03:26:24;15.60;;;7.78;;
32535;SDS011;18974;50.838;4.636;2024-01-30T03:28:50;13.13;;;6.32;;
32535;SDS011;18974;50.838;4.636;2024-01-30T03:31:15;12.27;;;6.75;;
32535;SDS011;18974;50.838;4.636;2024-01-30T03:33:41;15.90;;;7.55;;
32535;SDS011;18974;50.838;4.636;2024-01-30T03:36:07;15.10;;;6.97;;
32535;SDS011;18974;50.838;4.636;2024-01-30T03:38:33;14.73;;;7.10;;
32535;SDS011;18974;50.838;4.636;2024-01-30T03:40:59;17.05;;;7.20;;
32535;SDS011;18974;50.838;4.636;2024-01-30T03:43:25;14.00;;;6.93;;
32535;SDS011;18974;50.838;4.636;2024-01-30T03:45:51;12.63;;;6.63;;
32535;SDS011;18974;50.838;4.636;2024-01-30T03:48:17;12.15;;;6.63;;
32535;SDS011;18974;50.838;4.636;2024-01-30T03:50:43;10.00;;;6.55;;
32535;SDS011;18974;50.838;4.636;2024-01-30T03:53:09;12.95;;;7.20;;
32535;SDS011;18974;50.838;4.636;2024-01-30T03:55:34;13.27;;;7.15;;
32535;SDS011;18974;50.838;4.636;2024-01-30T03:58:00;12.02;;;5.95;;
32535;SDS011;18974;50.838;4.636;2024-01-30T04:00:26;18.08;;;6.32;;
32535;SDS011;18974;50.838;4.636;2024-01-30T04:02:52;10.95;;;6.03;;
32535;SDS011;18974;50.838;4.636;2024-01-30T04:05:17;15.27;;;6.55;;
32535;SDS011;18974;50.838;4.636;2024-01-30T04:07:43;12.98;;;6.65;;
32535;SDS011;18974;50.838;4.636;2024-01-30T04:10:12;12.75;;;6.82;;
32535;SDS011;18974;50.838;4.636;2024-01-30T04:12:37;15.68;;;6.22;;
32535;SDS011;18974;50.838;4.636;2024-01-30T04:15:03;15.43;;;6.35;;
32535;SDS011;18974;50.838;4.636;2024-01-30T04:17:29;18.55;;;6.68;;
32535;SDS011;18974;50.838;4.636;2024-01-30T04:19:55;17.45;;;7.05;;
32535;SDS011;18974;50.838;4.636;2024-01-30T04:22:20;21.35;;;6.70;;
32535;SDS011;18974;50.838;4.636;2024-01-30T04:24:46;14.27;;;6.20;;
32535;SDS011;18974;50.838;4.636;2024-01-30T04:27:12;11.73;;;6.43;;
32535;SDS011;18974;50.838;4.636;2024-01-30T04:29:38;13.82;;;6.78;;
32535;SDS011;18974;50.838;4.636;2024-01-30T04:32:03;17.05;;;7.22;;
32535;SDS011;18974;50.838;4.636;2024-01-30T04:34:29;11.90;;;6.35;;
32535;SDS011;18974;50.838;4.636;2024-01-30T04:36:55;14.00;;;6.75;;
32535;SDS011;18974;50.838;4.636;2024-01-30T04:39:21;16.45;;;7.10;;
32535;SDS011;18974;50.838;4.636;2024-01-30T04:41:47;17.15;;;7.03;;
32535;SDS011;18974;50.838;4.636;2024-01-30T04:44:13;14.38;;;6.90;;
32535;SDS011;18974;50.838;4.636;2024-01-30T04:46:39;17.75;;;7.57;;
32535;SDS011;18974;50.838;4.636;2024-01-30T04:49:06;14.45;;;6.50;;
32535;SDS011;18974;50.838;4.636;2024-01-30T04:51:32;17.23;;;7.35;;
32535;SDS011;18974;50.838;4.636;2024-01-30T04:53:58;18.00;;;7.13;;
32535;SDS011;18974;50.838;4.636;2024-01-30T04:56:24;16.73;;;6.68;;
32535;SDS011;18974;50.838;4.636;2024-01-30T04:58:50;15.77;;;6.38;;
32535;SDS011;18974;50.838;4.636;2024-01-30T05:01:16;14.73;;;7.72;;
32535;SDS011;18974;50.838;4.636;2024-01-30T05:03:42;15.65;;;6.55;;
32535;SDS011;18974;50.838;4.636;2024-01-30T05:06:08;14.43;;;7.03;;
32535;SDS011;18974;50.838;4.636;2024-01-30T05:08:33;13.57;;;7.22;;
32535;SDS011;18974;50.838;4.636;2024-01-30T05:11:01;13.75;;;6.63;;
32535;SDS011;18974;50.838;4.636;2024-01-30T05:13:29;12.95;;;6.38;;
32535;SDS011;18974;50.838;4.636;2024-01-30T05:15:58;14.45;;;7.20;;
32535;SDS011;18974;50.838;4.636;2024-01-30T05:18:26;14.07;;;7.00;;
32535;SDS011;18974;50.838;4.636;2024-01-30T05:20:52;13.35;;;7.50;;
32535;SDS011;18974;50.838;4.636;2024-01-30T05:23:17;13.48;;;6.90;;
32535;SDS011;18974;50.838;4.636;2024-01-30T05:25:43;13.55;;;7.25;;
32535;SDS011;18974;50.838;4.636;2024-01-30T05:28:09;13.50;;;7.38;;
32535;SDS011;18974;50.838;4.636;2024-01-30T05:30:35;14.10;;;6.82;;
32535;SDS011;18974;50.838;4.636;2024-01-30T05:33:00;10.68;;;6.78;;
32535;SDS011;18974;50.838;4.636;2024-01-30T05:35:26;17.40;;;6.90;;
32535;SDS011;18974;50.838;4.636;2024-01-30T05:37:52;15.40;;;7.35;;
32535;SDS011;18974;50.838;4.636;2024-01-30T05:40:17;12.88;;;6.65;;
32535;SDS011;18974;50.838;4.636;2024-01-30T05:42:43;10.40;;;6.60;;
32535;SDS011;18974;50.838;4.636;2024-01-30T05:45:09;14.20;;;7.15;;
32535;SDS011;18974;50.838;4.636;2024-01-30T05:47:34;11.93;;;6.70;;
32535;SDS011;18974;50.838;4.636;2024-01-30T05:50:00;13.52;;;6.65;;
32535;SDS011;18974;50.838;4.636;2024-01-30T05:52:26;13.43;;;6.70;;
32535;SDS011;18974;50.838;4.636;2024-01-30T05:54:51;14.00;;;6.85;;
32535;SDS011;18974;50.838;4.636;2024-01-30T05:57:17;12.20;;;6.90;;
32535;SDS011;18974;50.838;4.636;2024-01-30T05:59:44;12.98;;;6.55;;
32535;SDS011;18974;50.838;4.636;2024-01-30T06:02:10;12.48;;;6.45;;
32535;SDS011;18974;50.838;4.636;2024-01-30T06:04:36;18.17;;;6.63;;
32535;SDS011;18974;50.838;4.636;2024-01-30T06:07:02;13.82;;;6.95;;
32535;SDS011;18974;50.838;4.636;2024-01-30T06:09:28;14.70;;;6.60;;
32535;SDS011;18974;50.838;4.636;2024-01-30T06:11:56;10.82;;;6.55;;
32535;SDS011;18974;50.838;4.636;2024-01-30T06:14:22;12.68;;;6.47;;
32535;SDS011;18974;50.838;4.636;2024-01-30T06:16:48;15.57;;;6.07;;
32535;SDS011;18974;50.838;4.636;2024-01-30T06:19:13;14.93;;;7.22;;
32535;SDS011;18974;50.838;4.636;2024-01-30T06:21:39;11.98;;;6.20;;
32535;SDS011;18974;50.838;4.636;2024-01-30T06:24:05;10.82;;;6.38;;
32535;SDS011;18974;50.838;4.636;2024-01-30T06:26:30;10.18;;;5.82;;
32535;SDS011;18974;50.838;4.636;2024-01-30T06:28:56;12.07;;;6.88;;
32535;SDS011;18974;50.838;4.636;2024-01-30T06:31:22;14.32;;;7.10;;
32535;SDS011;18974;50.838;4.636;2024-01-30T06:33:47;16.98;;;6.93;;
32535;SDS011;18974;50.838;4.636;2024-01-30T06:36:14;13.60;;;6.85;;
32535;SDS011;18974;50.838;4.636;2024-01-30T06:38:40;15.52;;;6.82;;
32535;SDS011;18974;50.838;4.636;2024-01-30T06:41:06;15.45;;;7.60;;
32535;SDS011;18974;50.838;4.636;2024-01-30T06:43:31;15.27;;;6.97;;
32535;SDS011;18974;50.838;4.636;2024-01-30T06:45:57;16.42;;;6.82;;
32535;SDS011;18974;50.838;4.636;2024-01-30T06:48:23;15.52;;;7.30;;
32535;SDS011;18974;50.838;4.636;2024-01-30T06:50:48;12.07;;;7.10;;
32535;SDS011;18974;50.838;4.636;2024-01-30T06:53:15;18.27;;;7.18;;
32535;SDS011;18974;50.838;4.636;2024-01-30T06:55:41;16.25;;;7.38;;
32535;SDS011;18974;50.838;4.636;2024-01-30T06:58:07;12.05;;;7.38;;
32535;SDS011;18974;50.838;4.636;2024-01-30T07:00:32;15.68;;;7.40;;
32535;SDS011;18974;50.838;4.636;2024-01-30T07:02:58;23.25;;;7.43;;
32535;SDS011;18974;50.838;4.636;2024-01-30T07:05:23;13.15;;;6.75;;
32535;SDS011;18974;50.838;4.636;2024-01-30T07:07:49;12.25;;;6.70;;
32535;SDS011;18974;50.838;4.636;2024-01-30T07:10:15;11.73;;;6.72;;
32535;SDS011;18974;50.838;4.636;2024-01-30T07:12:41;21.50;;;6.80;;
32535;SDS011;18974;50.838;4.636;2024-01-30T07:15:06;12.43;;;6.30;;
32535;SDS011;18974;50.838;4.636;2024-01-30T07:17:35;9.98;;;6.07;;
32535;SDS011;18974;50.838;4.636;2024-01-30T07:20:01;12.05;;;6.57;;
32535;SDS011;18974;50.838;4.636;2024-01-30T07:22:29;14.40;;;6.47;;
32535;SDS011;18974;50.838;4.636;2024-01-30T07:24:56;12.85;;;6.53;;
32535;SDS011;18974;50.838;4.636;2024-01-30T07:27:22;14.20;;;6.47;;
32535;SDS011;18974;50.838;4.636;2024-01-30T07:29:48;10.77;;;6.82;;
32535;SDS011;18974;50.838;4.636;2024-01-30T07:32:14;12.15;;;6.20;;
32535;SDS011;18974;50.838;4.636;2024-01-30T07:34:39;10.48;;;5.75;;
32535;SDS011;18974;50.838;4.636;2024-01-30T07:37:05;9.30;;;6.28;;
32535;SDS011;18974;50.838;4.636;2024-01-30T07:39:33;10.02;;;6.40;;
32535;SDS011;18974;50.838;4.636;2024-01-30T07:41:59;9.35;;;5.57;;
32535;SDS011;18974;50.838;4.636;2024-01-30T07:44:25;8.25;;;6.03;;
32535;SDS011;18974;50.838;4.636;2024-01-30T07:46:51;11.23;;;6.32;;
32535;SDS011;18974;50.838;4.636;2024-01-30T07:49:16;10.45;;;6.30;;
32535;SDS011;18974;50.838;4.636;2024-01-30T07:51:42;13.88;;;6.53;;
32535;SDS011;18974;50.838;4.636;2024-01-30T07:54:10;10.18;;;6.13;;
32535;SDS011;18974;50.838;4.636;2024-01-30T07:56:35;10.52;;;5.43;;
32535;SDS011;18974;50.838;4.636;2024-01-30T07:59:01;12.18;;;6.53;;
32535;SDS011;18974;50.838;4.636;2024-01-30T08:01:27;13.90;;;6.25;;
32535;SDS011;18974;50.838;4.636;2024-01-30T08:03:52;12.13;;;6.47;;
32535;SDS011;18974;50.838;4.636;2024-01-30T08:06:18;10.55;;;6.28;;
32535;SDS011;18974;50.838;4.636;2024-01-30T08:08:44;13.35;;;6.50;;
32535;SDS011;18974;50.838;4.636;2024-01-30T08:11:10;16.13;;;6.00;;
32535;SDS011;18974;50.838;4.636;2024-01-30T08:13:37;17.05;;;6.70;;
32535;SDS011;18974;50.838;4.636;2024-01-30T08:16:02;12.68;;;5.95;;
32535;SDS011;18974;50.838;4.636;2024-01-30T08:18:29;14.52;;;7.18;;
32535;SDS011;18974;50.838;4.636;2024-01-30T08:20:54;9.30;;;6.25;;
32535;SDS011;18974;50.838;4.636;2024-01-30T08:23:20;12.45;;;5.90;;
32535;SDS011;18974;50.838;4.636;2024-01-30T08:25:46;12.35;;;6.10;;
32535;SDS011;18974;50.838;4.636;2024-01-30T08:28:11;10.50;;;5.93;;
32535;SDS011;18974;50.838;4.636;2024-01-30T08:30:37;10.27;;;6.40;;
32535;SDS011;18974;50.838;4.636;2024-01-30T08:33:04;10.55;;;6.38;;
32535;SDS011;18974;50.838;4.636;2024-01-30T08:35:30;9.77;;;6.57;;
32535;SDS011;18974;50.838;4.636;2024-01-30T08:37:58;13.32;;;6.22;;
32535;SDS011;18974;50.838;4.636;2024-01-30T08:40:24;16.38;;;7.00;;
32535;SDS011;18974;50.838;4.636;2024-01-30T08:42:50;10.23;;;6.68;;
32535;SDS011;18974;50.838;4.636;2024-01-30T08:45:15;15.13;;;6.55;;
32535;SDS011;18974;50.838;4.636;2024-01-30T08:47:42;11.73;;;6.32;;
32535;SDS011;18974;50.838;4.636;2024-01-30T08:50:08;17.13;;;7.28;;
32535;SDS011;18974;50.838;4.636;2024-01-30T08:52:34;12.05;;;6.25;;
32535;SDS011;18974;50.838;4.636;2024-01-30T08:55:00;14.88;;;6.78;;
32535;SDS011;18974;50.838;4.636;2024-01-30T08:57:25;11.77;;;6.47;;
32535;SDS011;18974;50.838;4.636;2024-01-30T08:59:54;14.25;;;7.18;;
32535;SDS011;18974;50.838;4.636;2024-01-30T09:02:20;13.85;;;6.57;;
32535;SDS011;18974;50.838;4.636;2024-01-30T09:04:45;18.10;;;7.55;;
32535;SDS011;18974;50.838;4.636;2024-01-30T09:07:11;18.98;;;6.90;;
32535;SDS011;18974;50.838;4.636;2024-01-30T09:09:38;15.75;;;7.05;;
32535;SDS011;18974;50.838;4.636;2024-01-30T09:12:07;14.18;;;6.85;;
32535;SDS011;18974;50.838;4.636;2024-01-30T09:14:36;15.00;;;6.80;;
32535;SDS011;18974;50.838;4.636;2024-01-30T09:17:02;20.05;;;6.72;;
32535;SDS011;18974;50.838;4.636;2024-01-30T09:19:29;13.35;;;6.60;;
32535;SDS011;18974;50.838;4.636;2024-01-30T09:21:55;12.85;;;6.10;;
32535;SDS011;18974;50.838;4.636;2024-01-30T09:24:21;16.83;;;6.82;;
32535;SDS011;18974;50.838;4.636;2024-01-30T09:26:46;13.57;;;6.50;;
32535;SDS011;18974;50.838;4.636;2024-01-30T09:29:12;11.57;;;6.35;;
32535;SDS011;18974;50.838;4.636;2024-01-30T09:31:38;13.98;;;6.97;;
32535;SDS011;18974;50.838;4.636;2024-01-30T09:34:03;14.23;;;6.90;;
32535;SDS011;18974;50.838;4.636;2024-01-30T09:36:29;12.00;;;7.03;;
32535;SDS011;18974;50.838;4.636;2024-01-30T09:38:55;13.00;;;6.68;;
32535;SDS011;18974;50.838;4.636;2024-01-30T09:41:20;12.10;;;6.60;;
32535;SDS011;18974;50.838;4.636;2024-01-30T09:43:49;14.43;;;6.60;;
32535;SDS011;18974;50.838;4.636;2024-01-30T09:46:16;15.77;;;6.85;;
32535;SDS011;18974;50.838;4.636;2024-01-30T09:48:46;13.88;;;6.95;;
32535;SDS011;18974;50.838;4.636;2024-01-30T09:51:13;15.02;;;6.68;;
32535;SDS011;18974;50.838;4.636;2024-01-30T09:53:41;15.00;;;7.25;;
32535;SDS011;18974;50.838;4.636;2024-01-30T09:56:09;15.70;;;7.43;;
32535;SDS011;18974;50.838;4.636;2024-01-30T09:58:36;15.77;;;7.13;;
32535;SDS011;18974;50.838;4.636;2024-01-30T10:01:02;12.95;;;6.78;;
32535;SDS011;18974;50.838;4.636;2024-01-30T10:03:27;13.32;;;7.28;;
32535;SDS011;18974;50.838;4.636;2024-01-30T10:05:53;16.95;;;7.18;;
32535;SDS011;18974;50.838;4.636;2024-01-30T10:08:21;14.30;;;6.90;;
32535;SDS011;18974;50.838;4.636;2024-01-30T10:10:47;13.07;;;7.22;;
32535;SDS011;18974;50.838;4.636;2024-01-30T10:13:14;16.98;;;7.88;;
32535;SDS011;18974;50.838;4.636;2024-01-30T10:15:41;15.45;;;8.05;;
32535;SDS011;18974;50.838;4.636;2024-01-30T10:18:08;13.52;;;7.70;;
32535;SDS011;18974;50.838;4.636;2024-01-30T10:20:35;16.38;;;7.60;;
32535;SDS011;18974;50.838;4.636;2024-01-30T10:23:01;18.98;;;8.15;;
32535;SDS011;18974;50.838;4.636;2024-01-30T10:25:27;15.77;;;7.82;;
32535;SDS011;18974;50.838;4.636;2024-01-30T10:27:53;17.92;;;8.43;;
32535;SDS011;18974;50.838;4.636;2024-01-30T10:30:22;17.10;;;8.18;;
32535;SDS011;18974;50.838;4.636;2024-01-30T10:32:48;18.80;;;8.98;;
32535;SDS011;18974;50.838;4.636;2024-01-30T10:35:14;20.83;;;9.00;;
32535;SDS011;18974;50.838;4.636;2024-01-30T10:37:44;18.38;;;8.35;;
32535;SDS011;18974;50.838;4.636;2024-01-30T10:40:13;16.00;;;8.27;;
32535;SDS011;18974;50.838;4.636;2024-01-30T10:42:41;17.73;;;9.43;;
32535;SDS011;18974;50.838;4.636;2024-01-30T10:45:09;16.67;;;8.23;;
32535;SDS011;18974;50.838;4.636;2024-01-30T10:47:49;17.73;;;8.50;;
32535;SDS011;18974;50.838;4.636;2024-01-30T10:50:15;19.52;;;8.68;;
32535;SDS011;18974;50.838;4.636;2024-01-30T10:52:41;20.45;;;9.43;;
32535;SDS011;18974;50.838;4.636;2024-01-30T10:55:08;17.75;;;9.75;;
32535;SDS011;18974;50.838;4.636;2024-01-30T10:57:35;19.33;;;9.15;;
32535;SDS011;18974;50.838;4.636;2024-01-30T11:00:03;18.02;;;9.15;;
32535;SDS011;18974;50.838;4.636;2024-01-30T11:02:41;18.52;;;9.07;;
32535;SDS011;18974;50.838;4.636;2024-01-30T11:05:08;16.60;;;8.50;;
32535;SDS011;18974;50.838;4.636;2024-01-30T11:07:34;17.17;;;8.80;;
32535;SDS011;18974;50.838;4.636;2024-01-30T11:10:01;18.75;;;7.88;;
32535;SDS011;18974;50.838;4.636;2024-01-30T11:12:32;10.77;;;7.07;;
32535;SDS011;18974;50.838;4.636;2024-01-30T11:20:29;12.48;;;6.60;;
32535;SDS011;18974;50.838;4.636;2024-01-30T11:23:00;14.80;;;6.45;;
32535;SDS011;18974;50.838;4.636;2024-01-30T11:25:31;15.27;;;6.32;;
32535;SDS011;18974;50.838;4.636;2024-01-30T11:27:57;14.63;;;6.13;;
32535;SDS011;18974;50.838;4.636;2024-01-30T11:30:26;12.73;;;5.82;;
32535;SDS011;18974;50.838;4.636;2024-01-30T11:33:05;13.05;;;5.53;;
32535;SDS011;18974;50.838;4.636;2024-01-30T11:35:38;16.17;;;6.03;;
32535;SDS011;18974;50.838;4.636;2024-01-30T11:38:07;14.85;;;4.75;;
32535;SDS011;18974;50.838;4.636;2024-01-30T11:40:34;10.40;;;5.00;;
32535;SDS011;18974;50.838;4.636;2024-01-30T11:43:03;10.43;;;4.00;;
32535;SDS011;18974;50.838;4.636;2024-01-30T11:45:29;7.93;;;3.30;;
32535;SDS011;18974;50.838;4.636;2024-01-30T11:47:56;8.00;;;3.00;;
32535;SDS011;18974;50.838;4.636;2024-01-30T11:50:22;6.60;;;2.30;;
32535;SDS011;18974;50.838;4.636;2024-01-30T11:52:49;7.85;;;2.80;;
32535;SDS011;18974;50.838;4.636;2024-01-30T11:55:15;11.18;;;3.30;;
32535;SDS011;18974;50.838;4.636;2024-01-30T11:57:42;8.02;;;2.38;;
32535;SDS011;18974;50.838;4.636;2024-01-30T12:00:16;6.38;;;2.17;;
32535;SDS011;18974;50.838;4.636;2024-01-30T12:02:43;5.68;;;1.70;;
32535;SDS011;18974;50.838;4.636;2024-01-30T12:05:09;12.35;;;2.50;;
32535;SDS011;18974;50.838;4.636;2024-01-30T12:07:35;6.00;;;1.88;;
32535;SDS011;18974;50.838;4.636;2024-01-30T12:10:01;3.65;;;1.42;;
32535;SDS011;18974;50.838;4.636;2024-01-30T12:12:28;2.95;;;1.30;;
32535;SDS011;18974;50.838;4.636;2024-01-30T12:14:55;6.70;;;1.50;;
32535;SDS011;18974;50.838;4.636;2024-01-30T12:17:31;7.35;;;1.50;;
32535;SDS011;18974;50.838;4.636;2024-01-30T12:20:18;3.75;;;1.48;;
32535;SDS011;18974;50.838;4.636;2024-01-30T12:22:45;5.27;;;1.50;;
32535;SDS011;18974;50.838;4.636;2024-01-30T12:25:13;4.88;;;1.08;;
32535;SDS011;18974;50.838;4.636;2024-01-30T12:27:44;2.90;;;0.90;;
32535;SDS011;18974;50.838;4.636;2024-01-30T12:30:12;2.00;;;0.88;;
32535;SDS011;18974;50.838;4.636;2024-01-30T12:32:40;4.47;;;0.98;;
32535;SDS011;18974;50.838;4.636;2024-01-30T12:35:08;3.85;;;0.93;;
32535;SDS011;18974;50.838;4.636;2024-01-30T12:37:38;4.30;;;0.85;;
32535;SDS011;18974;50.838;4.636;2024-01-30T12:40:04;4.30;;;0.82;;
32535;SDS011;18974;50.838;4.636;2024-01-30T12:42:31;4.22;;;0.70;;
32535;SDS011;18974;50.838;4.636;2024-01-30T12:44:57;2.30;;;0.50;;
32535;SDS011;18974;50.838;4.636;2024-01-30T12:47:26;3.05;;;0.90;;
32535;SDS011;18974;50.838;4.636;2024-01-30T12:49:52;3.28;;;0.75;;
32535;SDS011;18974;50.838;4.636;2024-01-30T12:52:20;2.38;;;0.70;;
32535;SDS011;18974;50.838;4.636;2024-01-30T12:54:47;2.35;;;0.70;;
32535;SDS011;18974;50.838;4.636;2024-01-30T12:57:13;3.17;;;0.60;;
32535;SDS011;18974;50.838;4.636;2024-01-30T12:59:39;2.35;;;0.70;;
32535;SDS011;18974;50.838;4.636;2024-01-30T13:02:05;2.47;;;0.55;;
32535;SDS011;18974;50.838;4.636;2024-01-30T13:04:31;2.58;;;0.60;;
32535;SDS011;18974;50.838;4.636;2024-01-30T13:06:57;4.43;;;0.70;;
32535;SDS011;18974;50.838;4.636;2024-01-30T13:09:23;1.50;;;0.65;;
32535;SDS011;18974;50.838;4.636;2024-01-30T13:11:49;2.88;;;0.65;;
32535;SDS011;18974;50.838;4.636;2024-01-30T13:14:16;2.88;;;0.50;;
32535;SDS011;18974;50.838;4.636;2024-01-30T13:16:42;3.90;;;1.05;;
32535;SDS011;18974;50.838;4.636;2024-01-30T13:19:08;8.65;;;1.02;;
32535;SDS011;18974;50.838;4.636;2024-01-30T13:21:34;7.00;;;1.00;;
32535;SDS011;18974;50.838;4.636;2024-01-30T13:23:59;4.88;;;0.77;;
32535;SDS011;18974;50.838;4.636;2024-01-30T13:26:25;5.25;;;1.00;;
32535;SDS011;18974;50.838;4.636;2024-01-30T13:28:51;3.45;;;0.85;;
32535;SDS011;18974;50.838;4.636;2024-01-30T13:31:17;3.30;;;0.75;;
32535;SDS011;18974;50.838;4.636;2024-01-30T13:33:43;9.02;;;0.88;;
32535;SDS011;18974;50.838;4.636;2024-01-30T13:36:09;2.50;;;0.70;;
32535;SDS011;18974;50.838;4.636;2024-01-30T13:38:36;3.58;;;0.85;;
32535;SDS011;18974;50.838;4.636;2024-01-30T13:41:02;3.97;;;0.90;;
32535;SDS011;18974;50.838;4.636;2024-01-30T13:43:28;6.32;;;1.20;;
32535;SDS011;18974;50.838;4.636;2024-01-30T13:45:53;7.75;;;1.17;;
32535;SDS011;18974;50.838;4.636;2024-01-30T13:48:20;6.35;;;1.08;;
32535;SDS011;18974;50.838;4.636;2024-01-30T13:50:45;8.25;;;1.48;;
32535;SDS011;18974;50.838;4.636;2024-01-30T13:53:11;6.20;;;1.30;;
32535;SDS011;18974;50.838;4.636;2024-01-30T13:55:37;6.55;;;1.30;;
32535;SDS011;18974;50.838;4.636;2024-01-30T13:58:04;7.78;;;1.05;;
32535;SDS011;18974;50.838;4.636;2024-01-30T14:00:30;7.45;;;0.90;;
32535;SDS011;18974;50.838;4.636;2024-01-30T14:02:56;6.43;;;1.02;;
32535;SDS011;18974;50.838;4.636;2024-01-30T14:05:23;3.33;;;1.00;;
32535;SDS011;18974;50.838;4.636;2024-01-30T14:07:50;6.90;;;1.40;;
32535;SDS011;18974;50.838;4.636;2024-01-30T14:10:16;6.00;;;1.08;;
32535;SDS011;18974;50.838;4.636;2024-01-30T14:12:43;6.32;;;1.40;;
32535;SDS011;18974;50.838;4.636;2024-01-30T14:15:09;6.07;;;1.45;;
32535;SDS011;18974;50.838;4.636;2024-01-30T14:17:36;3.78;;;1.08;;
32535;SDS011;18974;50.838;4.636;2024-01-30T14:20:05;4.20;;;1.02;;
32535;SDS011;18974;50.838;4.636;2024-01-30T14:22:33;12.23;;;2.13;;
32535;SDS011;18974;50.838;4.636;2024-01-30T14:24:59;6.97;;;0.90;;
32535;SDS011;18974;50.838;4.636;2024-01-30T14:27:29;8.43;;;1.25;;
32535;SDS011;18974;50.838;4.636;2024-01-30T14:29:55;4.38;;;0.93;;
32535;SDS011;18974;50.838;4.636;2024-01-30T14:32:21;3.47;;;0.80;;
32535;SDS011;18974;50.838;4.636;2024-01-30T14:34:48;5.68;;;1.00;;
32535;SDS011;18974;50.838;4.636;2024-01-30T14:37:14;6.88;;;1.05;;
32535;SDS011;18974;50.838;4.636;2024-01-30T14:39:40;6.78;;;1.00;;
32535;SDS011;18974;50.838;4.636;2024-01-30T14:42:06;6.25;;;1.17;;